sensor_id;sensor_type;location;lat;lon;timestamp;P1;durP1;ratioP1;P2;durP2;ratioP2
31760;SDS011;18335;51.486;7.562;2024-01-30T00:00:58;15.93;;;7.63;;
31760;SDS011;18335;51.486;7.562;2024-01-30T00:03:24;13.65;;;8.13;;
31760;SDS011;18335;51.486;7.562;2024-01-30T00:05:52;14.45;;;7.72;;
31760;SDS011;18335;51.486;7.562;2024-01-30T00:08:19;15.50;;;7.72;;
31760;SDS011;18335;51.486;7.562;2024-01-30T00:10:46;19.58;;;7.70;;
31760;SDS011;18335;51.486;7.562;2024-01-30T00:13:12;15.30;;;8.02;;
31760;SDS011;18335;51.486;7.562;2024-01-30T00:15:42;15.82;;;8.05;;
31760;SDS011;18335;51.486;7.562;2024-01-30T00:18:08;18.58;;;8.73;;
31760;SDS011;18335;51.486;7.562;2024-01-30T00:20:35;14.90;;;8.10;;
31760;SDS011;18335;51.486;7.562;2024-01-30T00:23:03;15.88;;;8.13;;
31760;SDS011;18335;51.486;7.562;2024-01-30T00:25:30;14.55;;;7.45;;
31760;SDS011;18335;51.486;7.562;2024-01-30T00:27:58;13.90;;;7.60;;
31760;SDS011;18335;51.486;7.562;2024-01-30T00:30:25;15.63;;;7.22;;
31760;SDS011;18335;51.486;7.562;2024-01-30T00:32:52;16.55;;;8.40;;
31760;SDS011;18335;51.486;7.562;2024-01-30T00:35:18;18.05;;;7.85;;
31760;SDS011;18335;51.486;7.562;2024-01-30T00:37:47;15.10;;;7.97;;
31760;SDS011;18335;51.486;7.562;2024-01-30T00:40:15;16.90;;;7.35;;
31760;SDS011;18335;51.486;7.562;2024-01-30T00:42:43;15.73;;;8.85;;
31760;SDS011;18335;51.486;7.562;2024-01-30T00:45:11;19.23;;;8.25;;
31760;SDS011;18335;51.486;7.562;2024-01-30T00:47:38;15.60;;;7.82;;
31760;SDS011;18335;51.486;7.562;2024-01-30T00:50:05;14.20;;;7.72;;
31760;SDS011;18335;51.486;7.562;2024-01-30T00:52:32;18.00;;;8.02;;
31760;SDS011;18335;51.486;7.562;2024-01-30T00:54:59;17.10;;;8.18;;
31760;SDS011;18335;51.486;7.562;2024-01-30T00:57:27;15.90;;;7.70;;
31760;SDS011;18335;51.486;7.562;2024-01-30T00:59:54;15.68;;;7.88;;
31760;SDS011;18335;51.486;7.562;2024-01-30T01:02:21;14.82;;;8.32;;
31760;SDS011;18335;51.486;7.562;2024-01-30T01:04:47;14.95;;;7.88;;
31760;SDS011;18335;51.486;7.562;2024-01-30T01:07:14;15.38;;;7.85;;
31760;SDS011;18335;51.486;7.562;2024-01-30T01:09:41;16.20;;;7.50;;
31760;SDS011;18335;51.486;7.562;2024-01-30T01:12:07;15.27;;;7.95;;
31760;SDS011;18335;51.486;7.562;2024-01-30T01:14:36;16.05;;;8.30;;
31760;SDS011;18335;51.486;7.562;2024-01-30T01:17:03;14.40;;;7.45;;
31760;SDS011;18335;51.486;7.562;2024-01-30T01:19:29;16.33;;;7.82;;
31760;SDS011;18335;51.486;7.562;2024-01-30T01:21:56;14.30;;;7.32;;
31760;SDS011;18335;51.486;7.562;2024-01-30T01:24:23;17.08;;;8.52;;
31760;SDS011;18335;51.486;7.562;2024-01-30T01:26:49;14.07;;;6.78;;
31760;SDS011;18335;51.486;7.562;2024-01-30T01:29:16;13.32;;;7.55;;
31760;SDS011;18335;51.486;7.562;2024-01-30T01:31:44;15.95;;;8.25;;
31760;SDS011;18335;51.486;7.562;2024-01-30T01:34:11;16.40;;;7.53;;
31760;SDS011;18335;51.486;7.562;2024-01-30T01:36:39;13.07;;;7.43;;
31760;SDS011;18335;51.486;7.562;2024-01-30T01:39:06;16.58;;;8.02;;
31760;SDS011;18335;51.486;7.562;2024-01-30T01:41:33;13.48;;;6.95;;
31760;SDS011;18335;51.486;7.562;2024-01-30T01:44:00;17.42;;;7.22;;
31760;SDS011;18335;51.486;7.562;2024-01-30T01:46:27;15.43;;;7.63;;
31760;SDS011;18335;51.486;7.562;2024-01-30T01:48:57;16.45;;;7.88;;
31760;SDS011;18335;51.486;7.562;2024-01-30T01:51:24;14.15;;;7.93;;
31760;SDS011;18335;51.486;7.562;2024-01-30T01:53:53;17.75;;;7.80;;
31760;SDS011;18335;51.486;7.562;2024-01-30T01:56:21;16.73;;;8.95;;
31760;SDS011;18335;51.486;7.562;2024-01-30T01:58:48;17.20;;;7.70;;
31760;SDS011;18335;51.486;7.562;2024-01-30T02:01:16;14.32;;;6.72;;
31760;SDS011;18335;51.486;7.562;2024-01-30T02:03:45;13.45;;;7.65;;
31760;SDS011;18335;51.486;7.562;2024-01-30T02:06:14;14.43;;;7.25;;
31760;SDS011;18335;51.486;7.562;2024-01-30T02:08:41;15.43;;;8.05;;
31760;SDS011;18335;51.486;7.562;2024-01-30T02:11:08;16.92;;;8.60;;
31760;SDS011;18335;51.486;7.562;2024-01-30T02:13:36;16.27;;;7.47;;
31760;SDS011;18335;51.486;7.562;2024-01-30T02:16:03;17.48;;;8.30;;
31760;SDS011;18335;51.486;7.562;2024-01-30T02:18:31;13.25;;;7.10;;
31760;SDS011;18335;51.486;7.562;2024-01-30T02:21:17;21.13;;;8.68;;
31760;SDS011;18335;51.486;7.562;2024-01-30T02:23:45;14.95;;;7.15;;
31760;SDS011;18335;51.486;7.562;2024-01-30T02:26:13;14.10;;;6.97;;
31760;SDS011;18335;51.486;7.562;2024-01-30T02:28:40;14.13;;;7.35;;
31760;SDS011;18335;51.486;7.562;2024-01-30T02:31:06;16.77;;;7.65;;
31760;SDS011;18335;51.486;7.562;2024-01-30T02:33:33;16.25;;;7.30;;
31760;SDS011;18335;51.486;7.562;2024-01-30T02:36:00;16.00;;;7.97;;
31760;SDS011;18335;51.486;7.562;2024-01-30T02:38:28;18.48;;;7.78;;
31760;SDS011;18335;51.486;7.562;2024-01-30T02:40:55;16.75;;;7.10;;
31760;SDS011;18335;51.486;7.562;2024-01-30T02:43:22;13.90;;;8.02;;
31760;SDS011;18335;51.486;7.562;2024-01-30T02:45:48;16.33;;;8.35;;
31760;SDS011;18335;51.486;7.562;2024-01-30T02:48:15;12.30;;;6.97;;
31760;SDS011;18335;51.486;7.562;2024-01-30T02:50:42;15.07;;;8.75;;
31760;SDS011;18335;51.486;7.562;2024-01-30T02:53:09;14.73;;;6.80;;
31760;SDS011;18335;51.486;7.562;2024-01-30T02:55:36;16.15;;;7.32;;
31760;SDS011;18335;51.486;7.562;2024-01-30T02:58:03;14.32;;;7.25;;
31760;SDS011;18335;51.486;7.562;2024-01-30T03:00:30;14.25;;;7.45;;
31760;SDS011;18335;51.486;7.562;2024-01-30T03:02:56;15.90;;;7.13;;
31760;SDS011;18335;51.486;7.562;2024-01-30T03:05:23;15.73;;;6.97;;
31760;SDS011;18335;51.486;7.562;2024-01-30T03:07:50;15.80;;;8.57;;
31760;SDS011;18335;51.486;7.562;2024-01-30T03:10:16;14.40;;;6.95;;
31760;SDS011;18335;51.486;7.562;2024-01-30T03:12:45;17.70;;;7.40;;
31760;SDS011;18335;51.486;7.562;2024-01-30T03:15:12;16.08;;;6.88;;
31760;SDS011;18335;51.486;7.562;2024-01-30T03:17:38;15.57;;;6.80;;
31760;SDS011;18335;51.486;7.562;2024-01-30T03:20:05;16.00;;;6.57;;
31760;SDS011;18335;51.486;7.562;2024-01-30T03:22:32;15.05;;;6.57;;
31760;SDS011;18335;51.486;7.562;2024-01-30T03:24:59;13.45;;;5.82;;
31760;SDS011;18335;51.486;7.562;2024-01-30T03:27:26;12.32;;;6.63;;
31760;SDS011;18335;51.486;7.562;2024-01-30T03:29:54;14.05;;;7.15;;
31760;SDS011;18335;51.486;7.562;2024-01-30T03:32:21;15.30;;;7.20;;
31760;SDS011;18335;51.486;7.562;2024-01-30T03:34:47;12.48;;;6.15;;
31760;SDS011;18335;51.486;7.562;2024-01-30T03:37:14;14.82;;;6.50;;
31760;SDS011;18335;51.486;7.562;2024-01-30T03:39:41;14.70;;;6.30;;
31760;SDS011;18335;51.486;7.562;2024-01-30T03:42:07;16.08;;;7.20;;
31760;SDS011;18335;51.486;7.562;2024-01-30T03:44:34;12.98;;;6.72;;
31760;SDS011;18335;51.486;7.562;2024-01-30T03:47:02;12.80;;;6.65;;
31760;SDS011;18335;51.486;7.562;2024-01-30T03:49:29;13.43;;;6.38;;
31760;SDS011;18335;51.486;7.562;2024-01-30T03:51:56;14.07;;;6.85;;
31760;SDS011;18335;51.486;7.562;2024-01-30T03:54:22;13.15;;;6.65;;
31760;SDS011;18335;51.486;7.562;2024-01-30T03:56:49;11.75;;;6.93;;
31760;SDS011;18335;51.486;7.562;2024-01-30T03:59:15;13.45;;;6.90;;
31760;SDS011;18335;51.486;7.562;2024-01-30T04:01:46;11.10;;;5.65;;
31760;SDS011;18335;51.486;7.562;2024-01-30T04:04:14;12.55;;;5.70;;
31760;SDS011;18335;51.486;7.562;2024-01-30T04:06:40;15.43;;;5.47;;
31760;SDS011;18335;51.486;7.562;2024-01-30T04:09:07;14.60;;;6.05;;
31760;SDS011;18335;51.486;7.562;2024-01-30T04:11:34;15.30;;;6.32;;
31760;SDS011;18335;51.486;7.562;2024-01-30T04:14:00;11.07;;;5.82;;
31760;SDS011;18335;51.486;7.562;2024-01-30T04:16:27;13.82;;;6.75;;
31760;SDS011;18335;51.486;7.562;2024-01-30T04:18:54;18.92;;;7.32;;
31760;SDS011;18335;51.486;7.562;2024-01-30T04:21:22;11.05;;;6.38;;
31760;SDS011;18335;51.486;7.562;2024-01-30T04:23:48;12.68;;;5.95;;
31760;SDS011;18335;51.486;7.562;2024-01-30T04:26:17;12.10;;;5.95;;
31760;SDS011;18335;51.486;7.562;2024-01-30T04:28:43;16.08;;;7.07;;
31760;SDS011;18335;51.486;7.562;2024-01-30T04:31:11;12.85;;;6.82;;
31760;SDS011;18335;51.486;7.562;2024-01-30T04:33:38;15.63;;;6.00;;
31760;SDS011;18335;51.486;7.562;2024-01-30T04:36:07;11.45;;;6.05;;
31760;SDS011;18335;51.486;7.562;2024-01-30T04:38:37;12.57;;;6.28;;
31760;SDS011;18335;51.486;7.562;2024-01-30T04:41:04;13.25;;;6.45;;
31760;SDS011;18335;51.486;7.562;2024-01-30T04:43:31;11.52;;;6.00;;
31760;SDS011;18335;51.486;7.562;2024-01-30T04:45:58;14.25;;;5.80;;
31760;SDS011;18335;51.486;7.562;2024-01-30T04:48:25;13.52;;;6.35;;
31760;SDS011;18335;51.486;7.562;2024-01-30T04:50:51;13.63;;;6.85;;
31760;SDS011;18335;51.486;7.562;2024-01-30T04:53:18;13.30;;;5.97;;
31760;SDS011;18335;51.486;7.562;2024-01-30T04:55:45;15.70;;;7.68;;
31760;SDS011;18335;51.486;7.562;2024-01-30T04:58:12;14.57;;;6.50;;
31760;SDS011;18335;51.486;7.562;2024-01-30T05:00:39;12.27;;;6.78;;
31760;SDS011;18335;51.486;7.562;2024-01-30T05:03:06;13.45;;;6.20;;
31760;SDS011;18335;51.486;7.562;2024-01-30T05:05:33;15.00;;;6.85;;
31760;SDS011;18335;51.486;7.562;2024-01-30T05:08:00;12.85;;;5.60;;
31760;SDS011;18335;51.486;7.562;2024-01-30T05:10:26;15.63;;;6.32;;
31760;SDS011;18335;51.486;7.562;2024-01-30T05:12:55;15.43;;;6.63;;
31760;SDS011;18335;51.486;7.562;2024-01-30T05:15:22;12.65;;;5.72;;
31760;SDS011;18335;51.486;7.562;2024-01-30T05:17:48;12.40;;;6.65;;
31760;SDS011;18335;51.486;7.562;2024-01-30T05:20:16;10.75;;;5.43;;
31760;SDS011;18335;51.486;7.562;2024-01-30T05:22:43;9.98;;;5.00;;
31760;SDS011;18335;51.486;7.562;2024-01-30T05:25:11;13.50;;;6.32;;
31760;SDS011;18335;51.486;7.562;2024-01-30T05:27:38;11.73;;;5.57;;
31760;SDS011;18335;51.486;7.562;2024-01-30T05:30:07;15.68;;;6.10;;
31760;SDS011;18335;51.486;7.562;2024-01-30T05:32:34;11.48;;;6.00;;
31760;SDS011;18335;51.486;7.562;2024-01-30T05:35:01;10.55;;;6.03;;
31760;SDS011;18335;51.486;7.562;2024-01-30T05:37:28;11.30;;;5.88;;
31760;SDS011;18335;51.486;7.562;2024-01-30T05:39:55;12.07;;;6.53;;
31760;SDS011;18335;51.486;7.562;2024-01-30T05:42:21;14.68;;;7.32;;
31760;SDS011;18335;51.486;7.562;2024-01-30T05:44:48;12.45;;;5.75;;
31760;SDS011;18335;51.486;7.562;2024-01-30T05:47:16;10.38;;;5.78;;
31760;SDS011;18335;51.486;7.562;2024-01-30T05:49:43;13.73;;;6.32;;
31760;SDS011;18335;51.486;7.562;2024-01-30T05:52:10;14.23;;;5.93;;
31760;SDS011;18335;51.486;7.562;2024-01-30T05:54:37;13.45;;;6.60;;
31760;SDS011;18335;51.486;7.562;2024-01-30T05:57:04;11.25;;;5.68;;
31760;SDS011;18335;51.486;7.562;2024-01-30T05:59:31;14.93;;;6.07;;
31760;SDS011;18335;51.486;7.562;2024-01-30T06:01:58;11.40;;;5.70;;
31760;SDS011;18335;51.486;7.562;2024-01-30T06:04:26;16.42;;;6.65;;
31760;SDS011;18335;51.486;7.562;2024-01-30T06:06:52;12.52;;;5.43;;
31760;SDS011;18335;51.486;7.562;2024-01-30T06:09:19;10.93;;;5.78;;
31760;SDS011;18335;51.486;7.562;2024-01-30T06:11:46;11.63;;;5.70;;
31760;SDS011;18335;51.486;7.562;2024-01-30T06:14:13;11.85;;;5.88;;
31760;SDS011;18335;51.486;7.562;2024-01-30T06:16:39;11.65;;;5.35;;
31760;SDS011;18335;51.486;7.562;2024-01-30T06:19:06;11.88;;;5.90;;
31760;SDS011;18335;51.486;7.562;2024-01-30T06:21:34;22.60;;;6.93;;
31760;SDS011;18335;51.486;7.562;2024-01-30T06:24:01;10.07;;;5.28;;
31760;SDS011;18335;51.486;7.562;2024-01-30T06:26:28;13.68;;;6.32;;
31760;SDS011;18335;51.486;7.562;2024-01-30T06:28:56;13.48;;;6.13;;
31760;SDS011;18335;51.486;7.562;2024-01-30T06:31:22;12.52;;;6.30;;
31760;SDS011;18335;51.486;7.562;2024-01-30T06:33:49;13.38;;;6.82;;
31760;SDS011;18335;51.486;7.562;2024-01-30T06:36:16;11.93;;;5.32;;
31760;SDS011;18335;51.486;7.562;2024-01-30T06:38:44;13.30;;;6.25;;
31760;SDS011;18335;51.486;7.562;2024-01-30T06:41:11;10.27;;;5.18;;
31760;SDS011;18335;51.486;7.562;2024-01-30T06:43:37;12.73;;;5.72;;
31760;SDS011;18335;51.486;7.562;2024-01-30T06:46:04;12.25;;;5.28;;
31760;SDS011;18335;51.486;7.562;2024-01-30T06:48:31;12.05;;;5.90;;
31760;SDS011;18335;51.486;7.562;2024-01-30T06:50:58;16.30;;;6.57;;
31760;SDS011;18335;51.486;7.562;2024-01-30T06:53:24;16.88;;;6.30;;
31760;SDS011;18335;51.486;7.562;2024-01-30T06:55:53;14.18;;;6.22;;
31760;SDS011;18335;51.486;7.562;2024-01-30T06:58:20;13.90;;;6.03;;
31760;SDS011;18335;51.486;7.562;2024-01-30T07:00:49;11.32;;;5.95;;
31760;SDS011;18335;51.486;7.562;2024-01-30T07:03:15;13.15;;;5.72;;
31760;SDS011;18335;51.486;7.562;2024-01-30T07:05:42;12.52;;;5.55;;
31760;SDS011;18335;51.486;7.562;2024-01-30T07:08:09;13.35;;;6.97;;
31760;SDS011;18335;51.486;7.562;2024-01-30T07:10:35;12.60;;;6.00;;
31760;SDS011;18335;51.486;7.562;2024-01-30T07:13:04;14.65;;;5.80;;
31760;SDS011;18335;51.486;7.562;2024-01-30T07:15:31;15.82;;;6.07;;
31760;SDS011;18335;51.486;7.562;2024-01-30T07:17:58;10.98;;;5.43;;
31760;SDS011;18335;51.486;7.562;2024-01-30T07:20:25;12.63;;;5.60;;
31760;SDS011;18335;51.486;7.562;2024-01-30T07:22:52;11.98;;;5.43;;
31760;SDS011;18335;51.486;7.562;2024-01-30T07:25:18;12.00;;;6.70;;
31760;SDS011;18335;51.486;7.562;2024-01-30T07:27:47;13.60;;;6.05;;
31760;SDS011;18335;51.486;7.562;2024-01-30T07:30:16;11.05;;;5.15;;
31760;SDS011;18335;51.486;7.562;2024-01-30T07:32:45;10.77;;;4.97;;
31760;SDS011;18335;51.486;7.562;2024-01-30T07:35:13;10.80;;;5.45;;
31760;SDS011;18335;51.486;7.562;2024-01-30T07:37:40;10.50;;;5.18;;
31760;SDS011;18335;51.486;7.562;2024-01-30T07:42:43;13.23;;;5.20;;
31760;SDS011;18335;51.486;7.562;2024-01-30T07:45:09;12.90;;;5.35;;
31760;SDS011;18335;51.486;7.562;2024-01-30T07:47:38;11.38;;;5.35;;
31760;SDS011;18335;51.486;7.562;2024-01-30T07:50:05;10.70;;;5.80;;
31760;SDS011;18335;51.486;7.562;2024-01-30T07:52:32;12.55;;;5.90;;
31760;SDS011;18335;51.486;7.562;2024-01-30T07:54:59;15.23;;;6.68;;
31760;SDS011;18335;51.486;7.562;2024-01-30T07:57:26;12.35;;;5.63;;
31760;SDS011;18335;51.486;7.562;2024-01-30T07:59:52;11.25;;;5.18;;
31760;SDS011;18335;51.486;7.562;2024-01-30T08:02:19;10.73;;;6.30;;
31760;SDS011;18335;51.486;7.562;2024-01-30T08:04:47;11.18;;;5.78;;
31760;SDS011;18335;51.486;7.562;2024-01-30T08:07:14;13.98;;;5.40;;
31760;SDS011;18335;51.486;7.562;2024-01-30T08:09:42;14.23;;;5.43;;
31760;SDS011;18335;51.486;7.562;2024-01-30T08:12:10;11.85;;;5.93;;
31760;SDS011;18335;51.486;7.562;2024-01-30T08:14:38;12.65;;;5.43;;
31760;SDS011;18335;51.486;7.562;2024-01-30T08:17:05;16.95;;;5.72;;
31760;SDS011;18335;51.486;7.562;2024-01-30T08:19:33;11.50;;;6.00;;
31760;SDS011;18335;51.486;7.562;2024-01-30T08:22:01;12.68;;;5.90;;
31760;SDS011;18335;51.486;7.562;2024-01-30T08:24:28;10.30;;;4.93;;
31760;SDS011;18335;51.486;7.562;2024-01-30T08:26:55;12.68;;;6.25;;
31760;SDS011;18335;51.486;7.562;2024-01-30T08:29:21;11.13;;;5.70;;
31760;SDS011;18335;51.486;7.562;2024-01-30T08:31:48;13.98;;;5.10;;
31760;SDS011;18335;51.486;7.562;2024-01-30T08:34:15;14.65;;;6.93;;
31760;SDS011;18335;51.486;7.562;2024-01-30T08:36:42;13.65;;;5.93;;
31760;SDS011;18335;51.486;7.562;2024-01-30T08:39:11;10.90;;;6.10;;
31760;SDS011;18335;51.486;7.562;2024-01-30T08:41:37;15.43;;;6.18;;
31760;SDS011;18335;51.486;7.562;2024-01-30T08:44:04;11.25;;;5.60;;
31760;SDS011;18335;51.486;7.562;2024-01-30T08:46:31;11.32;;;6.18;;
31760;SDS011;18335;51.486;7.562;2024-01-30T08:48:59;9.57;;;4.70;;
31760;SDS011;18335;51.486;7.562;2024-01-30T08:51:25;11.50;;;5.78;;
31760;SDS011;18335;51.486;7.562;2024-01-30T08:53:52;11.68;;;5.45;;
31760;SDS011;18335;51.486;7.562;2024-01-30T08:56:20;10.13;;;5.15;;
31760;SDS011;18335;51.486;7.562;2024-01-30T08:58:47;10.93;;;5.50;;
31760;SDS011;18335;51.486;7.562;2024-01-30T09:01:14;10.43;;;5.38;;
31760;SDS011;18335;51.486;7.562;2024-01-30T09:03:41;11.40;;;5.40;;
31760;SDS011;18335;51.486;7.562;2024-01-30T09:06:10;10.98;;;5.35;;
31760;SDS011;18335;51.486;7.562;2024-01-30T09:08:37;12.32;;;5.50;;
31760;SDS011;18335;51.486;7.562;2024-01-30T09:11:08;14.20;;;5.53;;
31760;SDS011;18335;51.486;7.562;2024-01-30T09:13:36;11.27;;;5.45;;
31760;SDS011;18335;51.486;7.562;2024-01-30T09:16:04;11.35;;;5.40;;
31760;SDS011;18335;51.486;7.562;2024-01-30T09:18:31;13.75;;;5.80;;
31760;SDS011;18335;51.486;7.562;2024-01-30T09:20:58;9.80;;;5.15;;
31760;SDS011;18335;51.486;7.562;2024-01-30T09:23:27;11.15;;;5.45;;
31760;SDS011;18335;51.486;7.562;2024-01-30T09:25:55;12.60;;;4.72;;
31760;SDS011;18335;51.486;7.562;2024-01-30T09:28:22;10.38;;;5.95;;
31760;SDS011;18335;51.486;7.562;2024-01-30T09:30:50;11.82;;;5.65;;
31760;SDS011;18335;51.486;7.562;2024-01-30T09:33:17;9.20;;;5.07;;
31760;SDS011;18335;51.486;7.562;2024-01-30T09:35:43;12.07;;;5.05;;
31760;SDS011;18335;51.486;7.562;2024-01-30T09:38:10;10.48;;;5.20;;
31760;SDS011;18335;51.486;7.562;2024-01-30T09:40:37;13.50;;;5.85;;
31760;SDS011;18335;51.486;7.562;2024-01-30T09:43:03;9.30;;;5.20;;
31760;SDS011;18335;51.486;7.562;2024-01-30T09:45:30;18.60;;;10.73;;
31760;SDS011;18335;51.486;7.562;2024-01-30T09:48:00;17.23;;;8.43;;
31760;SDS011;18335;51.486;7.562;2024-01-30T09:50:27;12.55;;;5.20;;
31760;SDS011;18335;51.486;7.562;2024-01-30T09:52:55;11.88;;;5.13;;
31760;SDS011;18335;51.486;7.562;2024-01-30T09:55:24;11.18;;;5.88;;
31760;SDS011;18335;51.486;7.562;2024-01-30T09:57:52;12.70;;;5.35;;
31760;SDS011;18335;51.486;7.562;2024-01-30T10:00:19;13.18;;;5.28;;
31760;SDS011;18335;51.486;7.562;2024-01-30T10:02:48;18.08;;;5.85;;
31760;SDS011;18335;51.486;7.562;2024-01-30T10:05:16;12.10;;;5.13;;
31760;SDS011;18335;51.486;7.562;2024-01-30T10:07:52;13.93;;;6.00;;
31760;SDS011;18335;51.486;7.562;2024-01-30T10:10:21;12.70;;;5.80;;
31760;SDS011;18335;51.486;7.562;2024-01-30T10:12:48;13.82;;;5.63;;
31760;SDS011;18335;51.486;7.562;2024-01-30T10:15:15;12.68;;;5.78;;
31760;SDS011;18335;51.486;7.562;2024-01-30T10:17:44;14.80;;;6.45;;
31760;SDS011;18335;51.486;7.562;2024-01-30T10:20:11;13.25;;;6.03;;
31760;SDS011;18335;51.486;7.562;2024-01-30T10:22:39;9.70;;;5.38;;
31760;SDS011;18335;51.486;7.562;2024-01-30T10:25:06;13.48;;;6.45;;
31760;SDS011;18335;51.486;7.562;2024-01-30T10:27:33;12.73;;;5.57;;
31760;SDS011;18335;51.486;7.562;2024-01-30T10:30:00;12.23;;;5.65;;
31760;SDS011;18335;51.486;7.562;2024-01-30T10:32:29;11.82;;;5.75;;
31760;SDS011;18335;51.486;7.562;2024-01-30T10:34:56;11.10;;;5.63;;
31760;SDS011;18335;51.486;7.562;2024-01-30T10:37:24;14.75;;;5.43;;
31760;SDS011;18335;51.486;7.562;2024-01-30T10:39:53;15.02;;;6.75;;
31760;SDS011;18335;51.486;7.562;2024-01-30T10:42:21;14.98;;;7.07;;
31760;SDS011;18335;51.486;7.562;2024-01-30T10:44:56;10.80;;;4.63;;
31760;SDS011;18335;51.486;7.562;2024-01-30T10:47:26;11.90;;;5.72;;
31760;SDS011;18335;51.486;7.562;2024-01-30T10:49:54;15.40;;;5.50;;
31760;SDS011;18335;51.486;7.562;2024-01-30T10:52:21;13.05;;;6.70;;
31760;SDS011;18335;51.486;7.562;2024-01-30T10:54:50;8.80;;;4.57;;
31760;SDS011;18335;51.486;7.562;2024-01-30T10:57:19;15.02;;;5.22;;
31760;SDS011;18335;51.486;7.562;2024-01-30T10:59:49;14.65;;;5.38;;
31760;SDS011;18335;51.486;7.562;2024-01-30T11:02:17;12.15;;;5.40;;
31760;SDS011;18335;51.486;7.562;2024-01-30T11:04:45;11.57;;;5.00;;
31760;SDS011;18335;51.486;7.562;2024-01-30T11:07:16;12.05;;;4.95;;
31760;SDS011;18335;51.486;7.562;2024-01-30T11:09:49;12.55;;;4.57;;
31760;SDS011;18335;51.486;7.562;2024-01-30T11:12:16;14.05;;;6.10;;
31760;SDS011;18335;51.486;7.562;2024-01-30T11:14:50;10.52;;;4.05;;
31760;SDS011;18335;51.486;7.562;2024-01-30T11:17:28;11.73;;;4.80;;
31760;SDS011;18335;51.486;7.562;2024-01-30T11:20:09;12.98;;;5.82;;
31760;SDS011;18335;51.486;7.562;2024-01-30T11:22:37;10.68;;;4.47;;
31760;SDS011;18335;51.486;7.562;2024-01-30T11:25:04;16.40;;;4.93;;
31760;SDS011;18335;51.486;7.562;2024-01-30T11:27:32;11.20;;;4.30;;
31760;SDS011;18335;51.486;7.562;2024-01-30T11:30:00;12.43;;;4.25;;
31760;SDS011;18335;51.486;7.562;2024-01-30T11:32:28;9.23;;;4.10;;
31760;SDS011;18335;51.486;7.562;2024-01-30T11:34:55;16.98;;;5.93;;
31760;SDS011;18335;51.486;7.562;2024-01-30T11:37:22;14.38;;;4.78;;
31760;SDS011;18335;51.486;7.562;2024-01-30T11:39:52;15.75;;;5.07;;
31760;SDS011;18335;51.486;7.562;2024-01-30T11:42:21;12.07;;;4.80;;
31760;SDS011;18335;51.486;7.562;2024-01-30T11:44:51;16.10;;;5.20;;
31760;SDS011;18335;51.486;7.562;2024-01-30T11:47:18;12.55;;;4.90;;
31760;SDS011;18335;51.486;7.562;2024-01-30T11:49:44;11.85;;;4.38;;
31760;SDS011;18335;51.486;7.562;2024-01-30T11:52:12;14.25;;;5.70;;
31760;SDS011;18335;51.486;7.562;2024-01-30T11:54:39;12.48;;;5.57;;
31760;SDS011;18335;51.486;7.562;2024-01-30T11:57:06;10.45;;;4.80;;
31760;SDS011;18335;51.486;7.562;2024-01-30T11:59:33;11.45;;;4.50;;
31760;SDS011;18335;51.486;7.562;2024-01-30T12:02:01;12.32;;;4.47;;
31760;SDS011;18335;51.486;7.562;2024-01-30T12:04:28;14.70;;;5.88;;
31760;SDS011;18335;51.486;7.562;2024-01-30T12:06:55;13.80;;;4.60;;
31760;SDS011;18335;51.486;7.562;2024-01-30T12:09:23;10.07;;;4.85;;
31760;SDS011;18335;51.486;7.562;2024-01-30T12:11:50;10.57;;;4.40;;
31760;SDS011;18335;51.486;7.562;2024-01-30T12:14:18;14.98;;;5.18;;
31760;SDS011;18335;51.486;7.562;2024-01-30T12:16:50;14.30;;;5.30;;
31760;SDS011;18335;51.486;7.562;2024-01-30T12:19:26;12.93;;;5.18;;
31760;SDS011;18335;51.486;7.562;2024-01-30T12:21:54;16.27;;;5.13;;
31760;SDS011;18335;51.486;7.562;2024-01-30T12:24:25;18.27;;;5.95;;
31760;SDS011;18335;51.486;7.562;2024-01-30T12:26:59;10.80;;;4.82;;
31760;SDS011;18335;51.486;7.562;2024-01-30T12:29:26;17.80;;;5.78;;
31760;SDS011;18335;51.486;7.562;2024-01-30T12:32:00;14.48;;;5.15;;
31760;SDS011;18335;51.486;7.562;2024-01-30T12:34:29;14.00;;;5.65;;
31760;SDS011;18335;51.486;7.562;2024-01-30T12:37:00;12.40;;;4.63;;
31760;SDS011;18335;51.486;7.562;2024-01-30T12:39:27;18.23;;;5.20;;
31760;SDS011;18335;51.486;7.562;2024-01-30T12:42:00;17.88;;;5.35;;
31760;SDS011;18335;51.486;7.562;2024-01-30T12:44:29;14.88;;;5.45;;
31760;SDS011;18335;51.486;7.562;2024-01-30T12:46:57;14.13;;;5.70;;
31760;SDS011;18335;51.486;7.562;2024-01-30T12:49:25;14.02;;;5.60;;
31760;SDS011;18335;51.486;7.562;2024-01-30T12:51:55;13.48;;;5.50;;
31760;SDS011;18335;51.486;7.562;2024-01-30T12:54:29;13.63;;;5.38;;
31760;SDS011;18335;51.486;7.562;2024-01-30T12:56:57;21.77;;;5.13;;
31760;SDS011;18335;51.486;7.562;2024-01-30T12:59:26;23.25;;;7.88;;
31760;SDS011;18335;51.486;7.562;2024-01-30T13:01:55;14.45;;;5.68;;
31760;SDS011;18335;51.486;7.562;2024-01-30T13:04:25;17.70;;;5.38;;
31760;SDS011;18335;51.486;7.562;2024-01-30T13:06:53;18.95;;;5.97;;
31760;SDS011;18335;51.486;7.562;2024-01-30T13:09:22;15.68;;;6.30;;
31760;SDS011;18335;51.486;7.562;2024-01-30T13:11:50;15.90;;;6.28;;
31760;SDS011;18335;51.486;7.562;2024-01-30T13:14:17;14.70;;;5.47;;
31760;SDS011;18335;51.486;7.562;2024-01-30T13:16:45;22.65;;;6.32;;
31760;SDS011;18335;51.486;7.562;2024-01-30T13:19:12;14.32;;;6.10;;
31760;SDS011;18335;51.486;7.562;2024-01-30T13:21:38;18.08;;;5.70;;
31760;SDS011;18335;51.486;7.562;2024-01-30T13:24:10;17.20;;;6.45;;
31760;SDS011;18335;51.486;7.562;2024-01-30T13:26:36;13.25;;;6.70;;
31760;SDS011;18335;51.486;7.562;2024-01-30T13:29:04;17.23;;;5.53;;
31760;SDS011;18335;51.486;7.562;2024-01-30T13:31:31;17.80;;;5.63;;
31760;SDS011;18335;51.486;7.562;2024-01-30T13:33:58;23.20;;;7.47;;
31760;SDS011;18335;51.486;7.562;2024-01-30T13:36:24;13.63;;;5.78;;
31760;SDS011;18335;51.486;7.562;2024-01-30T13:38:51;18.48;;;6.47;;
31760;SDS011;18335;51.486;7.562;2024-01-30T13:41:19;20.13;;;6.95;;
31760;SDS011;18335;51.486;7.562;2024-01-30T13:43:48;15.27;;;6.03;;
31760;SDS011;18335;51.486;7.562;2024-01-30T13:46:16;17.77;;;6.47;;
31760;SDS011;18335;51.486;7.562;2024-01-30T13:48:42;11.30;;;5.72;;
31760;SDS011;18335;51.486;7.562;2024-01-30T13:51:08;18.27;;;7.13;;
31760;SDS011;18335;51.486;7.562;2024-01-30T13:53:36;17.48;;;6.03;;
31760;SDS011;18335;51.486;7.562;2024-01-30T13:56:03;18.05;;;6.65;;
31760;SDS011;18335;51.486;7.562;2024-01-30T13:58:32;14.85;;;6.47;;
31760;SDS011;18335;51.486;7.562;2024-01-30T14:01:01;14.48;;;6.43;;
31760;SDS011;18335;51.486;7.562;2024-01-30T14:03:28;18.33;;;7.25;;
31760;SDS011;18335;51.486;7.562;2024-01-30T14:05:55;14.68;;;6.13;;
31760;SDS011;18335;51.486;7.562;2024-01-30T14:08:21;16.98;;;6.90;;
31760;SDS011;18335;51.486;7.562;2024-01-30T14:10:51;17.17;;;6.72;;
31760;SDS011;18335;51.486;7.562;2024-01-30T14:13:18;23.13;;;9.07;;
31760;SDS011;18335;51.486;7.562;2024-01-30T14:15:46;14.70;;;7.65;;
31760;SDS011;18335;51.486;7.562;2024-01-30T14:18:13;12.00;;;5.85;;
31760;SDS011;18335;51.486;7.562;2024-01-30T14:20:40;16.02;;;6.97;;
31760;SDS011;18335;51.486;7.562;2024-01-30T14:23:06;13.00;;;5.97;;
31760;SDS011;18335;51.486;7.562;2024-01-30T14:25:33;15.63;;;7.03;;
31760;SDS011;18335;51.486;7.562;2024-01-30T14:27:59;14.57;;;6.55;;
31760;SDS011;18335;51.486;7.562;2024-01-30T14:30:26;15.05;;;7.00;;
31760;SDS011;18335;51.486;7.562;2024-01-30T14:32:55;14.60;;;6.45;;
31760;SDS011;18335;51.486;7.562;2024-01-30T14:35:21;16.77;;;6.25;;
31760;SDS011;18335;51.486;7.562;2024-01-30T14:37:48;13.60;;;7.18;;
31760;SDS011;18335;51.486;7.562;2024-01-30T14:40:15;18.30;;;7.20;;